Time,TemperatureF,DewpointF,PressureIn,WindDirection,WindDirectionDegrees,WindSpeedMPH,WindSpeedGustMPH,Humidity,HourlyPrecipIn,Conditions,Clouds,dailyrainin,SoftwareType,DateUTC
2013-07-18 00:01:00,81.9,76.8,30.12,West,269,3.6,40.1,85,18.04,,,0.00,VWS V13.01,2013-07-18 04:01:00,
2013-07-18 00:06:00,82.1,77.0,30.11,NW,304,2.6,40.1,85,18.04,,,0.00,VWS V13.01,2013-07-18 04:06:00,
2013-07-18 00:11:00,81.8,76.8,30.11,West,277,2.2,40.1,85,18.04,,,0.00,VWS V13.01,2013-07-18 04:11:00,
2013-07-18 00:16:00,81.9,76.9,30.11,WNW,294,4.2,40.1,85,18.04,,,0.00,VWS V13.01,2013-07-18 04:16:00,
2013-07-18 00:21:00,82.0,76.9,30.11,WNW,294,3.0,40.1,85,18.04,,,0.00,VWS V13.01,2013-07-18 04:21:00,
2013-07-18 00:26:00,82.1,77.2,30.11,NW,309,3.7,40.1,85,18.04,,,0.00,VWS V13.01,2013-07-18 04:26:00,
2013-07-18 00:31:00,82.0,77.2,30.11,West,278,2.7,40.1,85,18.04,,,0.00,VWS V13.01,2013-07-18 04:31:00,
2013-07-18 00:36:00,82.0,77.2,30.12,West,274,0.0,40.1,85,18.04,,,0.00,VWS V13.01,2013-07-18 04:36:00,
2013-07-18 00:41:00,81.9,77.1,30.12,WNW,285,2.4,40.1,85,18.04,,,0.00,VWS V13.01,2013-07-18 04:41:00,
2013-07-18 00:46:00,82.0,77.4,30.12,WNW,295,4.5,40.1,86,18.04,,,0.00,VWS V13.01,2013-07-18 04:46:00,
2013-07-18 00:51:00,81.8,77.3,30.11,WNW,290,3.7,40.1,86,18.04,,,0.00,VWS V13.01,2013-07-18 04:51:00,
2013-07-18 00:56:00,81.9,77.5,30.11,WNW,287,1.9,40.1,87,18.04,,,0.00,VWS V13.01,2013-07-18 04:56:00,
2013-07-18 01:00:00,81.5,77.0,30.01,NW,308,1.2,40.1,86,18.04,,,0.00,VWS V13.01,2013-07-18 05:00:00,
2013-07-18 01:01:00,81.7,77.4,30.11,West,281,2.4,40.1,87,18.04,,,0.00,VWS V13.01,2013-07-18 05:01:00,
2013-07-18 01:02:00,81.4,76.9,30.01,NW,307,0.7,40.1,86,18.04,,,0.00,VWS V13.01,2013-07-18 05:02:00,
2013-07-18 01:06:00,81.7,77.5,30.11,WNW,287,2.2,40.1,87,18.04,,,0.00,VWS V13.01,2013-07-18 05:06:00,
2013-07-18 01:11:00,81.3,77.2,30.10,WNW,283,4.3,40.1,88,18.04,,,0.00,VWS V13.01,2013-07-18 05:11:00,
2013-07-18 01:16:00,81.3,77.3,30.11,WNW,288,5.4,40.1,88,18.04,,,0.00,VWS V13.01,2013-07-18 05:16:00,
2013-07-18 01:21:00,81.4,77.5,30.11,WNW,302,3.5,40.1,88,18.04,,,0.00,VWS V13.01,2013-07-18 05:21:00,
2013-07-18 01:26:00,81.0,77.2,30.11,West,277,2.4,40.1,88,18.04,,,0.00,VWS V13.01,2013-07-18 05:26:00,
2013-07-18 01:31:00,80.9,77.0,30.10,West,276,1.9,40.1,88,18.04,,,0.00,VWS V13.01,2013-07-18 05:31:00,
2013-07-18 01:36:00,81.0,77.2,30.10,NW,305,4.5,40.1,88,18.04,,,0.00,VWS V13.01,2013-07-18 05:36:00,
2013-07-18 01:41:00,81.0,77.2,30.10,WNW,285,2.6,40.1,88,18.04,,,0.00,VWS V13.01,2013-07-18 05:41:00,
2013-07-18 01:46:00,80.8,77.0,30.10,WNW,294,3.3,40.1,88,18.04,,,0.00,VWS V13.01,2013-07-18 05:46:00,
2013-07-18 01:51:00,80.8,77.0,30.10,NW,308,4.1,40.1,88,18.04,,,0.00,VWS V13.01,2013-07-18 05:51:00,
2013-07-18 01:56:00,80.6,76.8,30.10,NW,309,5.0,40.1,88,18.04,,,0.00,VWS V13.01,2013-07-18 05:56:00,
2013-07-18 02:01:00,80.4,76.7,30.10,NW,312,1.5,40.1,88,18.04,,,0.00,VWS V13.01,2013-07-18 06:01:00,
2013-07-18 02:06:00,80.5,76.8,30.10,WNW,298,3.9,40.1,89,18.04,,,0.00,VWS V13.01,2013-07-18 06:06:00,
2013-07-18 02:11:00,80.4,76.9,30.09,WNW,297,5.3,40.1,89,18.04,,,0.00,VWS V13.01,2013-07-18 06:11:00,
2013-07-18 02:16:00,80.3,76.7,30.10,WNW,285,3.9,40.1,89,18.04,,,0.00,VWS V13.01,2013-07-18 06:16:00,
2013-07-18 02:21:00,80.3,76.9,30.10,NW,312,2.5,40.1,89,18.04,,,0.00,VWS V13.01,2013-07-18 06:21:00,
2013-07-18 02:26:00,80.3,76.9,30.09,West,276,3.6,40.1,89,18.04,,,0.00,VWS V13.01,2013-07-18 06:26:00,
2013-07-18 02:31:00,80.2,76.8,30.09,WNW,288,4.5,40.1,90,18.04,,,0.00,VWS V13.01,2013-07-18 06:31:00,
2013-07-18 02:36:00,80.2,76.9,30.09,WNW,292,5.1,40.1,90,18.04,,,0.00,VWS V13.01,2013-07-18 06:36:00,
2013-07-18 02:41:00,80.2,77.0,30.09,WSW,257,1.8,40.1,90,18.04,,,0.00,VWS V13.01,2013-07-18 06:41:00,
2013-07-18 02:46:00,80.3,77.2,30.08,West,281,4.2,40.1,90,18.04,,,0.00,VWS V13.01,2013-07-18 06:46:00,
2013-07-18 02:51:00,80.0,76.8,30.09,WNW,291,3.4,40.1,90,18.04,,,0.00,VWS V13.01,2013-07-18 06:51:00,
2013-07-18 02:56:00,80.1,77.1,30.09,WNW,295,0.0,40.1,91,18.04,,,0.00,VWS V13.01,2013-07-18 06:56:00,
2013-07-18 03:01:00,79.8,76.9,30.08,WNW,287,1.1,40.1,91,18.04,,,0.00,VWS V13.01,2013-07-18 07:01:00,
2013-07-18 03:06:00,79.9,77.1,30.08,WNW,290,2.5,40.1,91,18.04,,,0.00,VWS V13.01,2013-07-18 07:06:00,
2013-07-18 03:11:00,79.9,77.2,30.08,West,281,2.9,40.1,92,18.04,,,0.00,VWS V13.01,2013-07-18 07:11:00,
2013-07-18 03:16:00,80.0,77.4,30.08,WNW,285,2.4,40.1,92,18.04,,,0.00,VWS V13.01,2013-07-18 07:16:00,
2013-07-18 03:21:00,79.7,77.2,30.08,WNW,284,2.8,40.1,92,18.04,,,0.00,VWS V13.01,2013-07-18 07:21:00,
2013-07-18 03:26:00,79.8,77.4,30.08,WNW,288,2.0,40.1,92,18.04,,,0.00,VWS V13.01,2013-07-18 07:26:00,
2013-07-18 03:31:00,79.4,77.1,30.08,West,281,3.0,40.1,93,18.04,,,0.00,VWS V13.01,2013-07-18 07:31:00,
2013-07-18 03:36:00,79.7,77.4,30.08,NW,315,2.5,40.1,93,18.04,,,0.00,VWS V13.01,2013-07-18 07:36:00,
2013-07-18 03:41:00,79.4,77.1,30.08,WNW,300,2.7,40.1,93,18.04,,,0.00,VWS V13.01,2013-07-18 07:41:00,
2013-07-18 03:46:00,79.5,77.3,30.08,WNW,301,2.0,40.1,93,18.04,,,0.00,VWS V13.01,2013-07-18 07:46:00,
2013-07-18 03:51:00,79.5,77.3,30.08,NW,307,2.4,40.1,93,18.04,,,0.00,VWS V13.01,2013-07-18 07:51:00,
2013-07-18 03:56:00,79.4,77.1,30.08,West,280,2.4,40.1,93,18.04,,,0.00,VWS V13.01,2013-07-18 07:56:00,
2013-07-18 04:01:00,79.3,77.1,30.08,NW,321,2.9,40.1,93,18.04,,,0.00,VWS V13.01,2013-07-18 08:01:00,
2013-07-18 04:06:00,79.7,77.6,30.07,West,266,4.6,40.1,93,18.04,,,0.00,VWS V13.01,2013-07-18 08:06:00,
2013-07-18 04:11:00,79.7,77.7,30.07,WNW,288,3.9,40.1,94,18.04,,,0.00,VWS V13.01,2013-07-18 08:11:00,
2013-07-18 04:16:00,79.4,77.4,30.07,WNW,295,3.4,40.1,94,18.04,,,0.00,VWS V13.01,2013-07-18 08:16:00,
2013-07-18 04:21:00,79.3,77.4,30.07,WNW,290,2.9,40.1,94,18.04,,,0.00,VWS V13.01,2013-07-18 08:21:00,
2013-07-18 04:26:00,79.3,77.4,30.07,WNW,291,3.8,40.1,94,18.04,,,0.00,VWS V13.01,2013-07-18 08:26:00,
2013-07-18 04:31:00,79.2,77.3,30.07,NW,312,1.6,40.1,94,18.04,,,0.00,VWS V13.01,2013-07-18 08:31:00,
2013-07-18 04:36:00,79.3,77.3,30.07,NW,305,2.7,40.1,94,18.04,,,0.00,VWS V13.01,2013-07-18 08:36:00,
2013-07-18 04:40:00,79.3,77.5,30.07,WNW,292,4.7,40.1,94,18.04,,,0.00,VWS V13.01,2013-07-18 08:40:00,
2013-07-18 04:45:00,79.4,77.7,30.07,WNW,292,3.2,40.1,94,18.04,,,0.00,VWS V13.01,2013-07-18 08:45:00,
2013-07-18 04:50:00,79.3,77.5,30.07,NW,304,2.8,40.1,94,18.04,,,0.00,VWS V13.01,2013-07-18 08:50:00,
2013-07-18 04:55:00,79.2,77.4,30.07,WNW,294,3.3,40.1,94,18.04,,,0.00,VWS V13.01,2013-07-18 08:55:00,
2013-07-18 05:00:00,79.1,77.4,30.07,WNW,291,3.7,40.1,95,18.04,,,0.00,VWS V13.01,2013-07-18 09:00:00,
2013-07-18 05:05:00,79.0,77.4,30.07,WNW,287,4.0,40.1,95,18.04,,,0.00,VWS V13.01,2013-07-18 09:05:00,
2013-07-18 05:10:00,78.9,77.3,30.07,NW,316,5.3,40.1,95,18.04,,,0.00,VWS V13.01,2013-07-18 09:10:00,
2013-07-18 05:15:00,78.9,77.4,30.07,WNW,288,3.4,40.1,95,18.04,,,0.00,VWS V13.01,2013-07-18 09:15:00,
2013-07-18 05:20:00,78.9,77.4,30.07,WNW,292,3.9,40.1,95,18.04,,,0.00,VWS V13.01,2013-07-18 09:20:00,
2013-07-18 05:25:00,78.8,77.3,30.07,WNW,285,3.4,40.1,95,18.04,,,0.00,VWS V13.01,2013-07-18 09:25:00,
2013-07-18 05:30:00,78.8,77.3,30.08,NW,312,2.1,40.1,95,18.04,,,0.00,VWS V13.01,2013-07-18 09:30:00,
2013-07-18 05:35:00,78.8,77.3,30.07,WNW,288,3.6,40.1,95,18.04,,,0.00,VWS V13.01,2013-07-18 09:35:00,
2013-07-18 05:40:00,78.9,77.4,30.07,NW,311,2.8,40.1,95,18.04,,,0.00,VWS V13.01,2013-07-18 09:40:00,
2013-07-18 05:45:00,79.0,77.5,30.07,WNW,284,2.5,40.1,95,18.04,,,0.00,VWS V13.01,2013-07-18 09:45:00,
2013-07-18 05:50:00,78.8,77.3,30.07,WNW,302,2.0,40.1,95,18.04,,,0.00,VWS V13.01,2013-07-18 09:50:00,
2013-07-18 05:55:00,79.0,77.5,30.08,NNW,330,3.5,40.1,95,18.04,,,0.00,VWS V13.01,2013-07-18 09:55:00,
2013-07-18 06:00:00,79.1,77.6,30.07,WNW,297,3.3,40.1,95,18.04,,,0.00,VWS V13.01,2013-07-18 10:00:00,
2013-07-18 06:05:00,79.1,77.6,30.08,WNW,295,2.4,40.1,95,18.04,,,0.00,VWS V13.01,2013-07-18 10:05:00,
2013-07-18 06:10:00,78.9,77.3,30.07,NW,308,3.2,40.1,95,18.04,,,0.00,VWS V13.01,2013-07-18 10:10:00,
2013-07-18 06:15:00,79.2,77.6,30.08,NW,311,1.9,40.1,95,18.04,,,0.00,VWS V13.01,2013-07-18 10:15:00,
2013-07-18 06:20:00,79.5,77.8,30.08,NW,325,0.0,40.1,95,18.04,,,0.00,VWS V13.01,2013-07-18 10:20:00,
2013-07-18 06:25:00,79.7,77.9,30.08,NW,304,0.0,40.1,94,18.04,,,0.00,VWS V13.01,2013-07-18 10:25:00,
2013-07-18 06:30:00,80.0,78.1,30.08,NW,304,0.0,40.1,94,18.04,,,0.00,VWS V13.01,2013-07-18 10:30:00,
2013-07-18 06:35:00,80.2,78.2,30.08,WNW,290,3.4,40.1,94,18.04,,,0.00,VWS V13.01,2013-07-18 10:35:00,
2013-07-18 06:40:00,80.3,78.1,30.08,WNW,294,2.9,40.1,93,18.04,,,0.00,VWS V13.01,2013-07-18 10:40:00,
2013-07-18 06:45:00,80.4,78.2,30.08,WNW,288,1.4,40.1,93,18.04,,,0.00,VWS V13.01,2013-07-18 10:45:00,
2013-07-18 06:50:00,80.5,78.1,30.08,NW,305,3.0,40.1,92,18.04,,,0.00,VWS V13.01,2013-07-18 10:50:00,
2013-07-18 06:55:00,81.1,78.7,30.08,NW,307,3.7,40.1,92,18.04,,,0.00,VWS V13.01,2013-07-18 10:55:00,
2013-07-18 07:00:00,81.4,78.7,30.08,WNW,300,1.5,40.1,92,18.04,,,0.00,VWS V13.01,2013-07-18 11:00:00,
2013-07-18 07:05:00,81.5,78.5,30.08,WNW,301,2.6,40.1,91,18.04,,,0.00,VWS V13.01,2013-07-18 11:05:00,
2013-07-18 07:10:00,82.3,79.0,30.08,NW,305,4.0,40.1,90,18.04,,,0.00,VWS V13.01,2013-07-18 11:10:00,
2013-07-18 07:15:00,82.6,78.9,30.08,WNW,297,5.9,40.1,89,18.04,,,0.00,VWS V13.01,2013-07-18 11:15:00,
2013-07-18 07:20:00,83.2,79.4,30.08,NW,304,1.8,40.1,88,18.04,,,0.00,VWS V13.01,2013-07-18 11:20:00,
2013-07-18 07:25:00,83.4,79.4,30.08,WNW,297,2.2,40.1,88,18.04,,,0.00,VWS V13.01,2013-07-18 11:25:00,
2013-07-18 07:30:00,84.1,79.8,30.08,NW,311,2.7,40.1,87,18.04,,,0.00,VWS V13.01,2013-07-18 11:30:00,
2013-07-18 07:35:00,84.4,80.0,30.08,WNW,300,4.4,40.1,87,18.04,,,0.00,VWS V13.01,2013-07-18 11:35:00,
2013-07-18 07:40:00,84.7,80.1,30.08,WNW,301,3.4,40.1,86,18.04,,,0.00,VWS V13.01,2013-07-18 11:40:00,
2013-07-18 07:45:00,84.9,80.0,30.08,West,270,1.4,40.1,85,18.04,,,0.00,VWS V13.01,2013-07-18 11:45:00,
2013-07-18 07:50:00,85.6,80.1,30.08,NW,323,2.4,40.1,84,18.04,,,0.00,VWS V13.01,2013-07-18 11:50:00,
2013-07-18 07:55:00,86.0,80.3,30.09,NW,315,2.2,40.1,83,18.04,,,0.00,VWS V13.01,2013-07-18 11:55:00,
2013-07-18 08:00:00,86.6,80.6,30.09,NW,304,3.1,40.1,82,18.04,,,0.00,VWS V13.01,2013-07-18 12:00:00,
2013-07-18 08:05:00,87.3,81.1,30.09,NNW,333,4.0,40.1,82,18.04,,,0.00,VWS V13.01,2013-07-18 12:05:00,
2013-07-18 08:10:00,87.6,80.9,30.09,NNW,343,2.9,40.1,81,18.04,,,0.00,VWS V13.01,2013-07-18 12:10:00,
2013-07-18 08:15:00,88.1,81.2,30.09,WNW,301,1.6,40.1,80,18.04,,,0.00,VWS V13.01,2013-07-18 12:15:00,
2013-07-18 08:20:00,87.9,81.1,30.09,NNW,343,3.2,40.1,80,18.04,,,0.00,VWS V13.01,2013-07-18 12:20:00,
2013-07-18 08:25:00,88.2,81.3,30.09,NW,304,2.6,40.1,80,18.04,,,0.00,VWS V13.01,2013-07-18 12:25:00,
2013-07-18 08:30:00,88.3,81.4,30.09,NW,326,2.5,40.1,80,18.04,,,0.00,VWS V13.01,2013-07-18 12:30:00,
2013-07-18 08:35:00,88.8,81.6,30.09,NNW,332,3.8,40.1,79,18.04,,,0.00,VWS V13.01,2013-07-18 12:35:00,
2013-07-18 08:40:00,89.5,81.8,30.09,North,357,4.4,40.1,78,18.04,,,0.00,VWS V13.01,2013-07-18 12:40:00,
2013-07-18 08:45:00,90.1,82.0,30.09,NW,312,2.1,40.1,77,18.04,,,0.00,VWS V13.01,2013-07-18 12:45:00,
2013-07-18 08:50:00,90.7,82.3,30.09,NW,318,4.7,40.1,76,18.04,,,0.00,VWS V13.01,2013-07-18 12:50:00,
2013-07-18 08:55:00,90.9,82.3,30.09,North,353,3.0,40.1,76,18.04,,,0.00,VWS V13.01,2013-07-18 12:55:00,
2013-07-18 09:00:00,91.3,82.3,30.09,WNW,284,0.0,40.1,75,18.04,,,0.00,VWS V13.01,2013-07-18 13:00:00,
2013-07-18 09:05:00,92.0,82.7,30.09,NNW,346,4.7,40.1,74,18.04,,,0.00,VWS V13.01,2013-07-18 13:05:00,
2013-07-18 09:10:00,92.2,82.4,30.09,NNW,333,6.7,40.1,73,18.04,,,0.00,VWS V13.01,2013-07-18 13:10:00,
2013-07-18 09:15:00,92.4,82.6,30.09,NNW,346,0.0,40.1,73,18.04,,,0.00,VWS V13.01,2013-07-18 13:15:00,
2013-07-18 09:20:00,92.7,82.8,30.09,NW,315,3.4,40.1,73,18.04,,,0.00,VWS V13.01,2013-07-18 13:20:00,
2013-07-18 09:25:00,92.8,82.8,30.09,North,0,4.7,40.1,73,18.04,,,0.00,VWS V13.01,2013-07-18 13:25:00,
2013-07-18 09:30:00,93.3,83.0,30.09,NNW,335,1.3,40.1,72,18.04,,,0.00,VWS V13.01,2013-07-18 13:30:00,
2013-07-18 09:35:00,94.1,83.2,30.09,NW,307,1.3,40.1,71,18.04,,,0.00,VWS V13.01,2013-07-18 13:35:00,
2013-07-18 09:40:00,94.4,82.8,30.09,NNW,346,3.9,40.1,69,18.04,,,0.00,VWS V13.01,2013-07-18 13:40:00,
2013-07-18 09:45:00,95.0,83.6,30.08,NW,305,1.7,40.1,70,18.04,,,0.00,VWS V13.01,2013-07-18 13:45:00,
2013-07-18 09:50:00,95.1,83.3,30.08,West,281,1.7,40.1,69,18.04,,,0.00,VWS V13.01,2013-07-18 13:50:00,
2013-07-18 09:55:00,95.2,83.1,30.08,NW,325,2.9,40.1,68,18.04,,,0.00,VWS V13.01,2013-07-18 13:55:00,
2013-07-18 10:00:00,95.4,82.7,30.09,NNW,330,5.3,40.1,67,18.04,,,0.00,VWS V13.01,2013-07-18 14:00:00,
2013-07-18 10:05:00,95.3,83.1,30.09,NNE,20,3.3,40.1,68,18.04,,,0.00,VWS V13.01,2013-07-18 14:05:00,
2013-07-18 10:10:00,95.9,82.8,30.09,North,349,2.2,40.1,66,18.04,,,0.00,VWS V13.01,2013-07-18 14:10:00,
2013-07-18 10:15:00,96.4,83.2,30.08,North,10,3.7,40.1,66,18.04,,,0.00,VWS V13.01,2013-07-18 14:15:00,
2013-07-18 10:20:00,97.0,83.5,30.08,NW,308,2.5,40.1,65,18.04,,,0.00,VWS V13.01,2013-07-18 14:20:00,
2013-07-18 10:25:00,96.2,83.0,30.08,NNW,333,0.0,40.1,66,18.04,,,0.00,VWS V13.01,2013-07-18 14:25:00,
2013-07-18 10:30:00,96.3,82.9,30.08,NNW,342,1.0,40.1,66,18.04,,,0.00,VWS V13.01,2013-07-18 14:30:00,
2013-07-18 10:35:00,96.3,82.5,30.08,NNE,20,1.7,40.1,65,18.04,,,0.00,VWS V13.01,2013-07-18 14:35:00,
2013-07-18 10:40:00,96.4,82.4,30.08,WNW,301,1.1,40.1,64,18.04,,,0.00,VWS V13.01,2013-07-18 14:40:00,
2013-07-18 10:45:00,96.3,82.8,30.08,NW,304,0.0,40.1,65,18.04,,,0.00,VWS V13.01,2013-07-18 14:45:00,
2013-07-18 10:50:00,96.9,82.8,30.08,NNE,22,0.0,40.1,64,18.04,,,0.00,VWS V13.01,2013-07-18 14:50:00,
2013-07-18 10:55:00,96.9,82.7,30.08,NNE,22,0.0,40.1,64,18.04,,,0.00,VWS V13.01,2013-07-18 14:55:00,
2013-07-18 11:00:00,96.7,82.6,30.08,NNE,32,0.0,40.1,64,18.04,,,0.00,VWS V13.01,2013-07-18 15:00:00,
2013-07-18 11:05:00,96.8,82.1,30.08,North,7,0.0,40.1,63,18.04,,,0.00,VWS V13.01,2013-07-18 15:05:00,
2013-07-18 11:10:00,97.2,82.1,30.08,North,350,3.3,40.1,62,18.04,,,0.00,VWS V13.01,2013-07-18 15:10:00,
2013-07-18 11:15:00,97.7,82.1,30.08,North,352,2.6,40.1,61,18.04,,,0.00,VWS V13.01,2013-07-18 15:15:00,
2013-07-18 11:20:00,98.2,82.1,30.08,NNW,343,4.7,40.1,60,18.04,,,0.00,VWS V13.01,2013-07-18 15:20:00,
2013-07-18 11:25:00,98.8,82.6,30.08,NW,315,0.0,40.1,60,18.04,,,0.00,VWS V13.01,2013-07-18 15:25:00,
2013-07-18 11:30:00,98.4,81.6,30.08,NNE,17,0.0,40.1,59,18.04,,,0.00,VWS V13.01,2013-07-18 15:30:00,
2013-07-18 11:35:00,98.8,81.9,30.08,WNW,300,2.9,40.1,59,18.04,,,0.00,VWS V13.01,2013-07-18 15:35:00,
2013-07-18 11:40:00,98.4,81.5,30.08,WNW,297,1.1,40.1,59,18.04,,,0.00,VWS V13.01,2013-07-18 15:40:00,
2013-07-18 11:45:00,98.5,81.6,30.08,NW,304,0.0,40.1,59,18.04,,,0.00,VWS V13.01,2013-07-18 15:45:00,
2013-07-18 11:50:00,98.8,81.8,30.08,North,356,0.6,40.1,59,18.04,,,0.00,VWS V13.01,2013-07-18 15:50:00,
2013-07-18 11:55:00,99.0,82.0,30.08,North,4,0.0,40.1,59,18.04,,,0.00,VWS V13.01,2013-07-18 15:55:00,
2013-07-18 12:00:00,98.9,81.7,30.08,ENE,70,0.0,40.1,58,18.04,,,0.00,VWS V13.01,2013-07-18 16:00:00,
2013-07-18 12:05:00,98.3,82.0,30.08,NNE,15,2.1,40.1,60,18.04,,,0.00,VWS V13.01,2013-07-18 16:05:00,
2013-07-18 12:10:00,98.2,81.6,30.08,ENE,75,1.2,40.1,59,18.04,,,0.00,VWS V13.01,2013-07-18 16:10:00,
2013-07-18 12:15:00,98.0,80.8,30.08,North,8,0.0,40.1,58,18.04,,,0.00,VWS V13.01,2013-07-18 16:15:00,
2013-07-18 12:20:00,97.7,80.4,30.08,NE,53,2.5,40.1,58,18.04,,,0.00,VWS V13.01,2013-07-18 16:20:00,
2013-07-18 12:24:00,97.9,80.9,30.08,North,4,1.2,40.1,58,18.04,,,0.00,VWS V13.01,2013-07-18 16:24:00,
2013-07-18 12:29:00,97.8,81.4,30.07,WNW,292,3.3,40.1,60,18.04,,,0.00,VWS V13.01,2013-07-18 16:29:00,
2013-07-18 12:34:00,97.9,82.4,30.07,NW,323,0.0,40.1,61,18.04,,,0.00,VWS V13.01,2013-07-18 16:34:00,
2013-07-18 12:39:00,97.3,81.9,30.07,WNW,298,3.3,40.1,62,18.04,,,0.00,VWS V13.01,2013-07-18 16:39:00,
2013-07-18 12:44:00,97.5,81.8,30.07,WNW,291,0.0,40.1,61,18.04,,,0.00,VWS V13.01,2013-07-18 16:44:00,
2013-07-18 12:49:00,98.0,82.3,30.07,East,80,1.0,40.1,61,18.04,,,0.00,VWS V13.01,2013-07-18 16:49:00,
2013-07-18 12:54:00,95.1,80.2,30.07,WSW,252,1.9,40.1,62,18.04,,,0.00,VWS V13.01,2013-07-18 16:54:00,
2013-07-18 12:59:00,94.9,80.5,30.07,NW,309,0.0,40.1,63,18.04,,,0.00,VWS V13.01,2013-07-18 16:59:00,
2013-07-18 13:04:00,94.7,80.4,30.06,NNW,328,0.0,40.1,64,18.04,,,0.00,VWS V13.01,2013-07-18 17:04:00,
2013-07-18 13:09:00,94.1,79.6,30.06,WNW,298,1.7,40.1,63,18.04,,,0.00,VWS V13.01,2013-07-18 17:09:00,
2013-07-18 13:14:00,92.4,77.5,30.07,NW,314,2.4,40.1,62,18.04,,,0.00,VWS V13.01,2013-07-18 17:14:00,
2013-07-18 13:19:00,91.5,76.8,30.06,West,277,3.0,40.1,62,18.04,,,0.00,VWS V13.01,2013-07-18 17:19:00,
2013-07-18 13:24:00,92.9,77.8,30.06,West,271,3.4,40.1,62,18.04,,,0.00,VWS V13.01,2013-07-18 17:24:00,
2013-07-18 13:29:00,93.1,78.3,30.06,WNW,294,0.0,40.1,62,18.04,,,0.00,VWS V13.01,2013-07-18 17:29:00,
2013-07-18 13:34:00,91.9,76.9,30.06,WNW,294,0.0,40.1,62,18.04,,,0.00,VWS V13.01,2013-07-18 17:34:00,
2013-07-18 13:39:00,93.2,78.7,30.06,WNW,300,2.4,40.1,63,18.04,,,0.00,VWS V13.01,2013-07-18 17:39:00,
2013-07-18 13:44:00,93.5,78.5,30.06,NW,319,4.5,40.1,62,18.04,,,0.00,VWS V13.01,2013-07-18 17:44:00,
2013-07-18 13:49:00,93.0,78.4,30.06,NW,314,3.5,40.1,63,18.04,,,0.00,VWS V13.01,2013-07-18 17:49:00,
2013-07-18 13:54:00,93.4,79.6,30.05,SW,225,0.0,40.1,64,18.04,,,0.00,VWS V13.01,2013-07-18 17:54:00,
2013-07-18 13:59:00,92.3,79.1,30.05,WNW,292,3.9,40.1,66,18.04,,,0.00,VWS V13.01,2013-07-18 17:59:00,
2013-07-18 14:04:00,91.5,79.0,30.06,West,263,1.0,40.1,67,18.04,,,0.00,VWS V13.01,2013-07-18 18:04:00,
2013-07-18 14:09:00,91.1,78.9,30.05,West,263,0.0,40.1,68,18.04,,,0.00,VWS V13.01,2013-07-18 18:09:00,
2013-07-18 14:14:00,90.4,78.4,30.05,SSE,148,2.6,40.1,68,18.04,,,0.00,VWS V13.01,2013-07-18 18:14:00,
2013-07-18 14:19:00,90.0,77.9,30.05,WSW,248,0.0,40.1,68,18.04,,,0.00,VWS V13.01,2013-07-18 18:19:00,
2013-07-18 14:24:00,89.7,78.0,30.05,SW,228,0.0,40.1,68,18.04,,,0.00,VWS V13.01,2013-07-18 18:24:00,
2013-07-18 14:29:00,89.9,78.2,30.05,West,264,0.7,40.1,69,18.04,,,0.00,VWS V13.01,2013-07-18 18:29:00,
2013-07-18 14:34:00,90.0,78.6,30.05,WSW,249,0.0,40.1,69,18.04,,,0.00,VWS V13.01,2013-07-18 18:34:00,
2013-07-18 14:39:00,90.0,78.2,30.04,WSW,253,3.3,40.1,68,18.04,,,0.00,VWS V13.01,2013-07-18 18:39:00,
2013-07-18 14:44:00,89.6,78.2,30.04,SW,231,1.1,40.1,69,18.04,,,0.00,VWS V13.01,2013-07-18 18:44:00,
2013-07-18 14:49:00,89.9,78.9,30.04,SW,236,0.0,40.1,70,18.04,,,0.00,VWS V13.01,2013-07-18 18:49:00,
2013-07-18 14:54:00,89.8,78.7,30.03,SSE,160,0.0,40.1,70,18.04,,,0.00,VWS V13.01,2013-07-18 18:54:00,
2013-07-18 14:59:00,90.0,78.7,30.04,West,264,3.0,40.1,70,18.04,,,0.00,VWS V13.01,2013-07-18 18:59:00,
2013-07-18 15:04:00,89.7,78.5,30.03,SW,228,1.1,40.1,70,18.04,,,0.00,VWS V13.01,2013-07-18 19:04:00,
2013-07-18 15:09:00,89.8,78.8,30.03,South,169,2.2,40.1,70,18.04,,,0.00,VWS V13.01,2013-07-18 19:09:00,
2013-07-18 15:14:00,89.9,78.8,30.03,WNW,290,0.0,40.1,70,18.04,,,0.00,VWS V13.01,2013-07-18 19:14:00,
2013-07-18 15:19:00,89.6,79.0,30.03,SE,143,0.0,40.1,71,18.04,,,0.00,VWS V13.01,2013-07-18 19:19:00,
2013-07-18 15:24:00,89.1,78.9,30.02,SW,232,2.4,40.1,72,18.04,,,0.00,VWS V13.01,2013-07-18 19:24:00,
2013-07-18 15:29:00,88.5,78.4,30.02,ESE,111,0.9,40.1,72,18.04,,,0.00,VWS V13.01,2013-07-18 19:29:00,
2013-07-18 15:34:00,88.6,78.6,30.03,SW,222,0.0,40.1,72,18.04,,,0.00,VWS V13.01,2013-07-18 19:34:00,
2013-07-18 15:39:00,88.8,78.9,30.02,South,181,0.7,40.1,73,18.04,,,0.00,VWS V13.01,2013-07-18 19:39:00,
2013-07-18 15:44:00,88.2,78.4,30.02,West,259,6.8,40.1,73,18.04,,,0.00,VWS V13.01,2013-07-18 19:44:00,
2013-07-18 15:49:00,88.3,78.8,30.02,ENE,70,0.0,40.1,74,18.04,,,0.00,VWS V13.01,2013-07-18 19:49:00,
2013-07-18 15:54:00,88.7,79.5,30.02,SSW,207,2.9,40.1,74,18.04,,,0.00,VWS V13.01,2013-07-18 19:54:00,
2013-07-18 15:59:00,88.6,79.2,30.02,WSW,255,0.8,40.1,74,18.04,,,0.00,VWS V13.01,2013-07-18 19:59:00,
2013-07-18 16:04:00,88.8,79.2,30.02,WNW,287,3.5,40.1,73,18.04,,,0.00,VWS V13.01,2013-07-18 20:04:00,
2013-07-18 16:09:00,88.1,78.7,30.02,SSW,200,0.0,40.1,74,18.04,,,0.00,VWS V13.01,2013-07-18 20:09:00,
2013-07-18 16:14:00,88.5,79.2,30.02,SW,229,0.0,40.1,74,18.04,,,0.00,VWS V13.01,2013-07-18 20:14:00,
2013-07-18 16:19:00,88.5,79.1,30.02,West,267,5.0,40.1,74,18.04,,,0.00,VWS V13.01,2013-07-18 20:19:00,
2013-07-18 16:24:00,89.2,79.8,30.02,NE,51,0.4,40.1,74,18.04,,,0.00,VWS V13.01,2013-07-18 20:24:00,
2013-07-18 16:29:00,89.0,79.6,30.02,South,169,4.8,40.1,74,18.04,,,0.00,VWS V13.01,2013-07-18 20:29:00,
2013-07-18 16:34:00,88.7,79.8,30.01,WNW,300,1.2,40.1,75,18.04,,,0.00,VWS V13.01,2013-07-18 20:34:00,
2013-07-18 16:39:00,89.0,80.0,30.02,South,188,5.3,40.1,75,18.04,,,0.00,VWS V13.01,2013-07-18 20:39:00,
2013-07-18 16:44:00,88.4,79.3,30.02,SSE,150,0.0,40.1,74,18.04,,,0.00,VWS V13.01,2013-07-18 20:44:00,
2013-07-18 16:49:00,88.7,79.8,30.01,ESE,108,0.0,40.1,75,18.04,,,0.00,VWS V13.01,2013-07-18 20:49:00,
2013-07-18 16:54:00,89.0,80.3,30.01,North,352,4.0,40.1,76,18.04,,,0.00,VWS V13.01,2013-07-18 20:54:00,
2013-07-18 16:59:00,89.0,79.1,30.01,NNE,31,0.0,40.1,73,18.04,,,0.00,VWS V13.01,2013-07-18 20:59:00,
2013-07-18 17:04:00,89.2,80.2,30.01,SSE,163,0.0,40.1,75,18.04,,,0.00,VWS V13.01,2013-07-18 21:04:00,
2013-07-18 17:09:00,88.8,80.1,30.01,WNW,295,2.2,40.1,76,18.04,,,0.00,VWS V13.01,2013-07-18 21:09:00,
2013-07-18 17:14:00,88.6,78.2,30.01,WNW,301,2.1,40.1,72,18.04,,,0.00,VWS V13.01,2013-07-18 21:14:00,
2013-07-18 17:19:00,89.3,79.1,30.01,WSW,240,0.0,40.1,72,18.04,,,0.00,VWS V13.01,2013-07-18 21:19:00,
2013-07-18 17:24:00,89.7,79.5,30.00,SSE,153,0.0,40.1,72,18.04,,,0.00,VWS V13.01,2013-07-18 21:24:00,
2013-07-18 17:29:00,89.8,78.5,30.00,NW,321,0.9,40.1,70,18.04,,,0.00,VWS V13.01,2013-07-18 21:29:00,
2013-07-18 17:34:00,89.9,78.2,30.00,South,173,1.2,40.1,69,18.04,,,0.00,VWS V13.01,2013-07-18 21:34:00,
2013-07-18 17:39:00,89.9,77.7,30.00,SSE,159,0.0,40.1,67,18.04,,,0.00,VWS V13.01,2013-07-18 21:39:00,
2013-07-18 17:44:00,89.9,77.4,30.00,WNW,297,2.4,40.1,67,18.04,,,0.00,VWS V13.01,2013-07-18 21:44:00,
2013-07-18 17:49:00,90.2,77.5,30.00,West,281,1.9,40.1,66,18.04,,,0.00,VWS V13.01,2013-07-18 21:49:00,
2013-07-18 17:54:00,90.4,77.4,30.00,West,280,3.4,40.1,66,18.04,,,0.00,VWS V13.01,2013-07-18 21:54:00,
2013-07-18 17:59:00,90.4,77.2,30.00,WNW,287,3.2,40.1,65,18.04,,,0.00,VWS V13.01,2013-07-18 21:59:00,
2013-07-18 18:04:00,90.7,77.4,30.00,NNW,340,2.5,40.1,65,18.04,,,0.00,VWS V13.01,2013-07-18 22:04:00,
2013-07-18 18:09:00,90.6,77.3,30.00,NNW,345,0.0,40.1,65,18.04,,,0.00,VWS V13.01,2013-07-18 22:09:00,
2013-07-18 18:14:00,90.3,77.2,30.00,NNW,345,0.0,40.1,66,18.04,,,0.00,VWS V13.01,2013-07-18 22:14:00,
2013-07-18 18:19:00,90.4,77.3,30.00,NNW,345,0.0,40.1,66,18.04,,,0.00,VWS V13.01,2013-07-18 22:19:00,
2013-07-18 18:24:00,90.0,76.9,30.00,North,3,0.0,40.1,66,18.04,,,0.00,VWS V13.01,2013-07-18 22:24:00,
2013-07-18 18:29:00,89.8,76.4,30.00,North,3,0.0,40.1,65,18.04,,,0.00,VWS V13.01,2013-07-18 22:29:00,
2013-07-18 18:34:00,92.7,78.5,30.00,NW,307,0.0,40.1,63,18.04,,,0.00,VWS V13.01,2013-07-18 22:34:00,
2013-07-18 18:39:00,92.3,78.0,30.00,NW,307,0.0,40.1,63,18.04,,,0.00,VWS V13.01,2013-07-18 22:39:00,
2013-07-18 18:44:00,92.1,77.8,30.00,WNW,284,0.0,40.1,63,18.04,,,0.00,VWS V13.01,2013-07-18 22:44:00,
2013-07-18 18:49:00,91.9,77.9,30.00,WNW,284,0.0,40.1,64,18.04,,,0.00,VWS V13.01,2013-07-18 22:49:00,
2013-07-18 18:54:00,91.8,77.2,30.00,NW,314,1.1,40.1,62,18.04,,,0.00,VWS V13.01,2013-07-18 22:54:00,
2013-07-18 18:59:00,91.0,76.7,30.01,NNW,345,0.0,40.1,63,18.04,,,0.00,VWS V13.01,2013-07-18 22:59:00,
2013-07-18 19:04:00,90.7,76.7,30.01,NNW,345,0.0,40.1,64,18.04,,,0.00,VWS V13.01,2013-07-18 23:04:00,
2013-07-18 19:09:00,90.2,76.3,30.01,WNW,284,0.0,40.1,64,18.04,,,0.00,VWS V13.01,2013-07-18 23:09:00,
2013-07-18 19:14:00,90.3,76.2,30.02,WNW,284,0.0,40.1,64,18.04,,,0.00,VWS V13.01,2013-07-18 23:14:00,
2013-07-18 19:19:00,90.0,76.7,30.02,WNW,284,0.0,40.1,65,18.04,,,0.00,VWS V13.01,2013-07-18 23:19:00,
2013-07-18 19:24:00,90.2,76.8,30.02,WNW,284,0.0,40.1,65,18.04,,,0.00,VWS V13.01,2013-07-18 23:24:00,
2013-07-18 19:29:00,90.0,76.8,30.02,WNW,284,0.0,40.1,65,18.04,,,0.00,VWS V13.01,2013-07-18 23:29:00,
2013-07-18 19:34:00,89.8,78.0,30.01,WNW,284,0.0,40.1,68,18.04,,,0.00,VWS V13.01,2013-07-18 23:34:00,
2013-07-18 19:39:00,89.4,79.0,30.01,WNW,284,0.0,40.1,72,18.04,,,0.00,VWS V13.01,2013-07-18 23:39:00,
2013-07-18 19:44:00,89.0,79.3,30.02,WNW,284,0.0,40.1,73,18.04,,,0.00,VWS V13.01,2013-07-18 23:44:00,
2013-07-18 19:48:00,88.6,79.7,30.02,WNW,284,0.0,40.1,75,18.04,,,0.00,VWS V13.01,2013-07-18 23:48:00,
2013-07-18 19:53:00,87.8,79.7,30.02,WNW,284,0.0,40.1,77,18.04,,,0.00,VWS V13.01,2013-07-18 23:53:00,
2013-07-18 19:58:00,87.5,80.1,30.02,WNW,284,0.0,40.1,79,18.04,,,0.00,VWS V13.01,2013-07-18 23:58:00,
2013-07-18 19:59:00,87.5,80.1,30.02,WNW,284,0.0,40.1,79,18.04,,,0.00,VWS V13.01,2013-07-18 23:59:00,
2013-07-18 20:03:00,86.6,79.2,30.02,WNW,284,0.0,40.1,79,18.04,,,0.00,VWS V13.01,2013-07-19 00:03:00,
2013-07-18 20:08:00,86.5,79.6,30.02,WNW,284,0.0,40.1,80,18.04,,,0.00,VWS V13.01,2013-07-19 00:08:00,
2013-07-18 20:13:00,86.2,79.5,30.01,WNW,284,0.0,40.1,80,18.04,,,0.00,VWS V13.01,2013-07-19 00:13:00,
2013-07-18 20:18:00,86.9,80.4,30.01,WNW,284,0.0,40.1,81,18.04,,,0.00,VWS V13.01,2013-07-19 00:18:00,
2013-07-18 20:23:00,86.6,80.1,30.01,WNW,284,0.0,40.1,81,18.04,,,0.00,VWS V13.01,2013-07-19 00:23:00,
2013-07-18 20:28:00,86.5,80.2,30.01,WNW,284,0.0,40.1,82,18.04,,,0.00,VWS V13.01,2013-07-19 00:28:00,
2013-07-18 20:33:00,86.3,80.4,30.02,WNW,284,0.0,40.1,83,18.04,,,0.00,VWS V13.01,2013-07-19 00:33:00,
2013-07-18 20:38:00,85.8,79.3,30.02,WNW,284,0.0,40.1,81,18.04,,,0.00,VWS V13.01,2013-07-19 00:38:00,
2013-07-18 20:43:00,85.7,80.2,30.02,WNW,284,0.0,40.1,84,18.04,,,0.00,VWS V13.01,2013-07-19 00:43:00,
2013-07-18 20:48:00,85.6,80.3,30.02,WNW,284,0.0,40.1,84,18.04,,,0.00,VWS V13.01,2013-07-19 00:48:00,
2013-07-18 20:53:00,85.7,80.4,30.03,WNW,284,0.0,40.1,84,18.04,,,0.00,VWS V13.01,2013-07-19 00:53:00,
2013-07-18 20:58:00,85.3,80.0,30.02,WNW,284,0.0,40.1,84,18.04,,,0.00,VWS V13.01,2013-07-19 00:58:00,
2013-07-18 21:03:00,85.0,79.4,30.02,WNW,290,0.6,40.1,84,18.04,,,0.00,VWS V13.01,2013-07-19 01:03:00,
2013-07-18 21:08:00,84.9,79.0,30.02,NW,304,2.2,40.1,83,18.04,,,0.00,VWS V13.01,2013-07-19 01:08:00,
2013-07-18 21:13:00,84.9,79.2,30.02,WNW,284,3.3,40.1,83,18.04,,,0.00,VWS V13.01,2013-07-19 01:13:00,
2013-07-18 21:18:00,84.9,79.2,30.03,WNW,288,1.1,40.1,83,18.04,,,0.00,VWS V13.01,2013-07-19 01:18:00,
2013-07-18 21:23:00,84.4,78.8,30.02,West,276,3.7,40.1,83,18.04,,,0.00,VWS V13.01,2013-07-19 01:23:00,
2013-07-18 21:28:00,84.5,79.0,30.02,West,277,2.1,40.1,84,18.04,,,0.00,VWS V13.01,2013-07-19 01:28:00,
2013-07-18 21:33:00,84.0,78.5,30.02,West,260,1.3,40.1,84,18.04,,,0.00,VWS V13.01,2013-07-19 01:33:00,
2013-07-18 21:38:00,84.0,78.7,30.02,WNW,285,2.3,40.1,84,18.04,,,0.00,VWS V13.01,2013-07-19 01:38:00,
2013-07-18 21:43:00,84.0,78.7,30.02,West,264,0.0,40.1,84,18.04,,,0.00,VWS V13.01,2013-07-19 01:43:00,
2013-07-18 21:48:00,83.9,78.7,30.02,West,274,2.3,40.1,84,18.04,,,0.00,VWS V13.01,2013-07-19 01:48:00,
2013-07-18 21:53:00,83.4,78.3,30.02,WSW,243,1.2,40.1,85,18.04,,,0.00,VWS V13.01,2013-07-19 01:53:00,
2013-07-18 21:58:00,83.5,78.3,30.02,West,263,0.0,40.1,84,18.04,,,0.00,VWS V13.01,2013-07-19 01:58:00,
2013-07-18 22:03:00,83.3,78.2,30.02,WSW,243,1.4,40.1,85,18.04,,,0.00,VWS V13.01,2013-07-19 02:03:00,
2013-07-18 22:08:00,83.1,78.1,30.02,NW,322,1.1,40.1,85,18.04,,,0.00,VWS V13.01,2013-07-19 02:08:00,
2013-07-18 22:13:00,83.0,78.1,30.02,West,276,0.0,40.1,85,18.04,,,0.00,VWS V13.01,2013-07-19 02:13:00,
2013-07-18 22:18:00,82.8,78.0,30.02,WNW,298,2.3,40.1,85,18.04,,,0.00,VWS V13.01,2013-07-19 02:18:00,
2013-07-18 22:23:00,82.7,77.8,30.02,West,264,0.0,40.1,85,18.04,,,0.00,VWS V13.01,2013-07-19 02:23:00,
2013-07-18 22:28:00,82.8,77.9,30.02,SW,235,0.0,40.1,85,18.04,,,0.00,VWS V13.01,2013-07-19 02:28:00,
2013-07-18 22:33:00,82.8,77.7,30.02,WSW,253,1.2,40.1,85,18.04,,,0.00,VWS V13.01,2013-07-19 02:33:00,
2013-07-18 22:38:00,82.4,77.3,30.02,WNW,291,0.0,40.1,84,18.04,,,0.00,VWS V13.01,2013-07-19 02:38:00,
2013-07-18 22:39:00,82.6,77.5,30.02,WNW,291,0.0,40.1,85,18.04,,,0.00,VWS V13.01,2013-07-19 02:39:00,
2013-07-18 22:44:00,82.5,77.4,30.02,WSW,238,0.0,40.1,84,18.04,,,0.00,VWS V13.01,2013-07-19 02:44:00,
2013-07-18 22:49:00,82.5,77.4,30.02,WNW,284,0.0,40.1,84,18.04,,,0.00,VWS V13.01,2013-07-19 02:49:00,
2013-07-18 22:54:00,82.4,77.3,30.02,WNW,292,2.1,40.1,85,18.04,,,0.00,VWS V13.01,2013-07-19 02:54:00,
2013-07-18 22:59:00,82.4,77.4,30.02,NW,308,0.0,40.1,85,18.04,,,0.00,VWS V13.01,2013-07-19 02:59:00,
2013-07-18 23:04:00,82.0,77.1,30.02,West,281,0.0,40.1,85,18.04,,,0.00,VWS V13.01,2013-07-19 03:04:00,
2013-07-18 23:09:00,82.0,77.1,30.02,WSW,252,0.0,40.1,85,18.04,,,0.00,VWS V13.01,2013-07-19 03:09:00,
2013-07-18 23:14:00,81.8,76.8,30.02,NW,314,0.8,40.1,85,18.04,,,0.00,VWS V13.01,2013-07-19 03:14:00,
2013-07-18 23:19:00,81.9,76.9,30.02,WNW,285,0.0,40.1,85,18.04,,,0.00,VWS V13.01,2013-07-19 03:19:00,
2013-07-18 23:24:00,81.9,76.9,30.02,SW,235,0.0,40.1,85,18.04,,,0.00,VWS V13.01,2013-07-19 03:24:00,
2013-07-18 23:29:00,82.0,77.0,30.02,West,273,1.7,40.1,85,18.04,,,0.00,VWS V13.01,2013-07-19 03:29:00,
2013-07-18 23:34:00,81.4,76.5,30.01,WSW,257,1.0,40.1,85,18.04,,,0.00,VWS V13.01,2013-07-19 03:34:00,
2013-07-18 23:39:00,81.4,76.6,30.01,WNW,291,0.0,40.1,86,18.04,,,0.00,VWS V13.01,2013-07-19 03:39:00,
2013-07-18 23:44:00,81.7,77.0,30.01,SW,217,0.0,40.1,86,18.04,,,0.00,VWS V13.01,2013-07-19 03:44:00,
2013-07-18 23:49:00,81.3,76.6,30.01,SW,226,1.0,40.1,86,18.04,,,0.00,VWS V13.01,2013-07-19 03:49:00,
2013-07-18 23:54:00,81.3,76.8,30.01,West,281,0.0,40.1,86,18.04,,,0.00,VWS V13.01,2013-07-19 03:54:00,
2013-07-18 23:59:00,81.2,76.8,30.01,WNW,300,1.3,40.1,86,18.04,,,0.00,VWS V13.01,2013-07-19 03:59:00,